Time;durP1;ratioP1;P1;durP2;ratioP2;P2;SDS_P1;SDS_P2;PMS_P1;PMS_P2;Temp;Humidity;BMP_temperature;BMP_pressure;BME280_temperature;BME280_humidity;BME280_pressure;Samples;Min_cycle;Max_cycle;Signal;HPM_P1;HPM_P2
2022/06/15 00:00:44;;;;;;;0.40;0.40;;;13.50;99.90;;;;;;5073896;28;20067;-72
2022/06/15 00:03:12;;;;;;;0.30;0.30;;;13.30;99.90;;;;;;5073868;28;20044;-74
2022/06/15 00:05:38;;;;;;;0.40;0.40;;;13.30;99.90;;;;;;5077709;28;20452;-76
2022/06/15 00:08:05;;;;;;;0.40;0.40;;;13.50;99.90;;;;;;5077310;28;20102;-75
2022/06/15 00:10:32;;;;;;;0.30;0.30;;;13.20;99.90;;;;;;5077473;28;20556;-78
2022/06/15 00:12:58;;;;;;;0.30;0.30;;;13.10;99.90;;;;;;5077283;28;20078;-76
2022/06/15 00:15:23;;;;;;;0.40;0.40;;;13.10;99.90;;;;;;5077533;28;20044;-77
2022/06/15 00:17:49;;;;;;;0.30;0.30;;;13.10;99.90;;;;;;5077597;28;20102;-78
2022/06/15 00:20:14;;;;;;;0.40;0.40;;;13.10;99.90;;;;;;5077381;28;20083;-75
2022/06/15 00:22:40;;;;;;;0.40;0.40;;;13.00;99.90;;;;;;5077268;28;20442;-75
2022/06/15 00:25:07;;;;;;;0.40;0.40;;;13.00;99.90;;;;;;5077185;28;20136;-76
2022/06/15 00:27:32;;;;;;;0.40;0.40;;;12.90;99.90;;;;;;5077044;28;20103;-74
2022/06/15 00:29:58;;;;;;;0.40;0.40;;;12.90;99.90;;;;;;5077444;28;20045;-77
2022/06/15 00:32:24;;;;;;;0.30;0.30;;;12.90;99.90;;;;;;5077334;28;20127;-76
2022/06/15 00:34:49;;;;;;;0.40;0.40;;;12.80;99.90;;;;;;5077171;28;20044;-71
2022/06/15 00:37:15;;;;;;;0.30;0.30;;;12.80;99.90;;;;;;5076912;28;20048;-77
2022/06/15 00:39:40;;;;;;;0.30;0.30;;;12.70;99.90;;;;;;5077464;28;20045;-74
2022/06/15 00:42:06;;;;;;;0.40;0.40;;;12.60;99.90;;;;;;5077053;28;20048;-73
2022/06/15 00:44:36;;;;;;;0.40;0.40;;;12.50;99.90;;;;;;5076849;28;20040;-78
2022/06/15 00:47:04;;;;;;;0.40;0.40;;;12.50;99.90;;;;;;5076760;28;20403;-72
2022/06/15 00:49:54;;;;;;;0.45;0.40;;;12.50;99.90;;;;;;5076669;28;20041;-75
2022/06/15 00:52:59;;;;;;;0.40;0.40;;;12.40;99.90;;;;;;5077290;28;20066;-75
2022/06/15 00:55:32;;;;;;;0.40;0.40;;;12.40;99.90;;;;;;5076656;28;20049;-75
2022/06/15 00:58:01;;;;;;;0.40;0.40;;;12.40;99.90;;;;;;5076739;28;20044;-74
2022/06/15 01:00:27;;;;;;;0.40;0.40;;;12.40;99.90;;;;;;5076690;28;20053;-72
2022/06/15 01:02:53;;;;;;;0.40;0.40;;;12.30;99.90;;;;;;5076583;28;20048;-75
2022/06/15 01:05:49;;;;;;;0.40;0.40;;;12.30;99.90;;;;;;5076542;28;20057;-75
2022/06/15 01:08:40;;;;;;;0.40;0.40;;;12.20;99.90;;;;;;5076688;28;20036;-75
2022/06/15 01:12:10;;;;;;;0.40;0.40;;;12.20;99.90;;;;;;5076902;28;20044;-76
2022/06/15 01:14:42;;;;;;;0.30;0.30;;;12.10;99.90;;;;;;4975195;28;20090;-77
2022/06/15 01:17:42;;;;;;;0.40;0.40;;;12.10;99.90;;;;;;4975371;28;20038;-76
2022/06/15 01:20:32;;;;;;;0.40;0.40;;;12.00;99.90;;;;;;5046808;28;20088;-76
2022/06/15 01:23:16;;;;;;;0.40;0.40;;;12.00;99.90;;;;;;5076296;28;20123;-73
2022/06/15 01:26:05;;;;;;;0.40;0.40;;;11.90;99.90;;;;;;5076618;28;20091;-75
2022/06/15 01:28:53;;;;;;;0.40;0.40;;;11.80;99.90;;;;;;5076463;28;20041;-79
2022/06/15 01:31:33;;;;;;;0.40;0.40;;;11.80;99.90;;;;;;5076075;28;20075;-76
2022/06/15 01:34:10;;;;;;;0.40;0.40;;;11.70;99.90;;;;;;5076010;28;20508;-75
2022/06/15 01:36:44;;;;;;;0.40;0.40;;;11.70;99.90;;;;;;5076404;28;20074;-78
2022/06/15 01:39:21;;;;;;;0.40;0.40;;;11.70;99.90;;;;;;5076187;28;20040;-78
2022/06/15 01:41:57;;;;;;;0.30;0.30;;;11.60;99.90;;;;;;5075997;28;20090;-75
2022/06/15 01:44:33;;;;;;;0.60;0.60;;;11.60;99.90;;;;;;5075627;28;20036;-72
2022/06/15 01:47:05;;;;;;;0.40;0.40;;;11.60;99.90;;;;;;5075734;28;20094;-75
2022/06/15 01:49:38;;;;;;;0.40;0.40;;;11.50;99.90;;;;;;5075790;28;20389;-76
2022/06/15 01:52:07;;;;;;;0.40;0.40;;;11.50;99.90;;;;;;5075777;28;20044;-74
2022/06/15 01:54:39;;;;;;;0.40;0.40;;;11.40;99.90;;;;;;5075617;28;20393;-75
2022/06/15 01:57:07;;;;;;;0.40;0.40;;;11.40;99.90;;;;;;5075553;28;20045;-75
2022/06/15 01:59:35;;;;;;;0.35;0.35;;;11.40;99.90;;;;;;5075461;28;20071;-75
2022/06/15 02:02:10;;;;;;;0.40;0.40;;;11.40;99.90;;;;;;5057508;28;20511;-73
2022/06/15 02:05:03;;;;;;;0.40;0.40;;;11.30;99.90;;;;;;5075558;28;20493;-78
2022/06/15 02:07:34;;;;;;;0.40;0.40;;;11.30;99.90;;;;;;5075703;28;20057;-73
2022/06/15 02:10:14;;;;;;;0.40;0.40;;;11.20;99.90;;;;;;5075716;28;20044;-75
2022/06/15 02:13:01;;;;;;;0.40;0.40;;;11.20;99.90;;;;;;5075449;28;20048;-74
2022/06/15 02:15:29;;;;;;;0.45;0.45;;;11.20;99.90;;;;;;5075178;28;20087;-74
2022/06/15 02:17:58;;;;;;;0.40;0.40;;;11.10;99.90;;;;;;5075464;28;20119;-76
2022/06/15 02:20:31;;;;;;;0.40;0.40;;;11.10;99.90;;;;;;5074993;28;20048;-76
2022/06/15 02:23:02;;;;;;;0.40;0.40;;;11.10;99.90;;;;;;5074839;28;20041;-75
2022/06/15 02:25:33;;;;;;;0.40;0.40;;;11.10;99.90;;;;;;5074934;28;20040;-71
2022/06/15 02:28:01;;;;;;;0.40;0.40;;;11.10;99.90;;;;;;5074231;28;20064;-73
2022/06/15 02:30:29;;;;;;;0.60;0.60;;;11.10;99.90;;;;;;5074806;28;20103;-75
2022/06/15 02:32:54;;;;;;;0.40;0.40;;;11.00;99.90;;;;;;5074755;28;20097;-72
2022/06/15 02:35:22;;;;;;;0.30;0.30;;;11.00;99.90;;;;;;5074789;28;20052;-75
2022/06/15 02:37:49;;;;;;;0.40;0.40;;;11.00;99.90;;;;;;5074642;28;20043;-72
2022/06/15 02:40:18;;;;;;;0.40;0.40;;;11.00;99.90;;;;;;5074686;28;20044;-78
2022/06/15 02:42:45;;;;;;;0.40;0.40;;;11.00;99.90;;;;;;5074568;28;20047;-73
2022/06/15 02:45:19;;;;;;;0.40;0.40;;;11.00;99.90;;;;;;5074492;28;20048;-76
2022/06/15 02:47:46;;;;;;;0.40;0.40;;;11.00;99.90;;;;;;5075174;28;20044;-75
2022/06/15 02:50:14;;;;;;;0.40;0.40;;;10.90;99.90;;;;;;5074420;28;20089;-74
2022/06/15 02:52:45;;;;;;;0.40;0.40;;;10.90;99.90;;;;;;5074562;28;20044;-72
2022/06/15 02:55:12;;;;;;;0.40;0.40;;;11.10;99.90;;;;;;5074456;28;20052;-74
2022/06/15 02:58:06;;;;;;;0.40;0.40;;;10.80;99.90;;;;;;5074253;28;20511;-75
2022/06/15 03:00:33;;;;;;;0.40;0.40;;;10.80;99.90;;;;;;5053288;28;20056;-75
2022/06/15 03:02:58;;;;;;;0.63;0.50;;;10.80;99.90;;;;;;5074238;28;20118;-76
2022/06/15 03:05:24;;;;;;;0.40;0.40;;;10.80;99.90;;;;;;5074375;28;20052;-77
2022/06/15 03:07:49;;;;;;;0.40;0.40;;;10.70;99.90;;;;;;5074067;28;20051;-75
2022/06/15 03:10:15;;;;;;;0.40;0.40;;;10.70;99.90;;;;;;5074328;28;20032;-77
2022/06/15 03:12:41;;;;;;;0.40;0.40;;;10.70;99.90;;;;;;5074167;28;20056;-74
2022/06/15 03:15:07;;;;;;;0.50;0.50;;;10.70;99.90;;;;;;5074093;28;20464;-75
2022/06/15 03:17:32;;;;;;;0.40;0.40;;;10.70;99.90;;;;;;5074229;28;20041;-75
2022/06/15 03:19:58;;;;;;;0.40;0.40;;;10.60;99.90;;;;;;5074035;28;20040;-75
2022/06/15 03:22:23;;;;;;;0.40;0.40;;;10.60;99.90;;;;;;5073953;28;20059;-75
2022/06/15 03:24:49;;;;;;;0.40;0.40;;;10.60;99.90;;;;;;5074364;28;20048;-78
2022/06/15 03:27:14;;;;;;;0.40;0.40;;;10.60;99.90;;;;;;5073973;28;20491;-76
2022/06/15 03:29:42;;;;;;;0.40;0.40;;;10.70;99.90;;;;;;5074146;28;20044;-78
2022/06/15 03:32:08;;;;;;;0.40;0.40;;;10.70;99.90;;;;;;5055980;28;20546;-76
2022/06/15 03:34:33;;;;;;;0.40;0.40;;;10.60;99.90;;;;;;5073935;28;20071;-74
2022/06/15 03:36:59;;;;;;;0.40;0.40;;;10.60;99.90;;;;;;5073589;28;20279;-78
2022/06/15 03:39:24;;;;;;;0.50;0.50;;;10.60;99.90;;;;;;5073135;28;20446;-76
2022/06/15 03:41:50;;;;;;;0.50;0.50;;;10.70;99.90;;;;;;5073763;28;20502;-77
2022/06/15 03:44:16;;;;;;;0.40;0.40;;;10.70;99.90;;;;;;5073475;28;20044;-72
2022/06/15 03:46:41;;;;;;;0.40;0.40;;;10.70;99.90;;;;;;5073961;28;20098;-72
2022/06/15 03:49:07;;;;;;;0.75;0.75;;;10.70;99.90;;;;;;5073847;28;20461;-72
2022/06/15 03:51:32;;;;;;;0.40;0.40;;;11.00;99.90;;;;;;5073731;28;20041;-75
2022/06/15 03:53:58;;;;;;;0.40;0.40;;;10.70;99.90;;;;;;5073632;28;20087;-75
2022/06/15 03:56:38;;;;;;;0.40;0.40;;;10.70;99.90;;;;;;5073514;28;20049;-74
2022/06/15 03:59:03;;;;;;;0.40;0.40;;;10.70;99.90;;;;;;5073425;28;20036;-74
2022/06/15 04:01:29;;;;;;;0.30;0.30;;;10.80;99.90;;;;;;5073799;28;20086;-74
2022/06/15 04:03:55;;;;;;;0.63;0.63;;;10.80;99.90;;;;;;5073354;28;20132;-74
2022/06/15 04:06:21;;;;;;;0.52;0.52;;;10.90;99.90;;;;;;5073489;28;20472;-78
2022/06/15 04:08:47;;;;;;;0.50;0.50;;;10.90;99.90;;;;;;5073432;28;20047;-78
2022/06/15 04:14:00;;;;;;;0.45;0.45;;;10.90;99.90;;;;;;5073387;28;20415;-78
2022/06/15 04:16:26;;;;;;;0.40;0.40;;;11.00;99.90;;;;;;5073387;28;20044;-74
2022/06/15 04:18:51;;;;;;;0.50;0.50;;;11.00;99.90;;;;;;5073366;28;20109;-75
2022/06/15 04:21:17;;;;;;;1.60;1.25;;;11.10;99.90;;;;;;5073725;28;20105;-76
2022/06/15 04:23:42;;;;;;;0.40;0.40;;;11.20;99.90;;;;;;5073348;28;20072;-73
2022/06/15 04:26:09;;;;;;;0.40;0.40;;;11.20;99.90;;;;;;5073672;28;20040;-74
2022/06/15 04:28:38;;;;;;;0.40;0.40;;;11.40;99.90;;;;;;5073210;28;20182;-74
2022/06/15 04:31:03;;;;;;;0.40;0.40;;;11.30;99.90;;;;;;5073065;28;20089;-74
2022/06/15 04:33:29;;;;;;;0.47;0.47;;;11.30;99.90;;;;;;5073156;28;20543;-76
2022/06/15 04:35:55;;;;;;;0.40;0.40;;;11.40;99.90;;;;;;5073322;28;20427;-75
2022/06/15 04:38:21;;;;;;;0.50;0.50;;;11.60;99.90;;;;;;5073667;28;20041;-75
2022/06/15 04:40:46;;;;;;;0.47;0.47;;;11.60;99.90;;;;;;5073538;28;20044;-74
2022/06/15 04:43:12;;;;;;;0.50;0.50;;;11.70;99.90;;;;;;5073569;28;20127;-77
2022/06/15 04:45:38;;;;;;;0.40;0.40;;;11.80;99.90;;;;;;5073105;28;20051;-75
2022/06/15 04:48:04;;;;;;;0.68;0.68;;;11.80;99.90;;;;;;5073185;28;20043;-74
2022/06/15 04:50:30;;;;;;;0.50;0.50;;;11.90;99.90;;;;;;5075286;28;20044;-75
2022/06/15 04:52:56;;;;;;;0.40;0.40;;;12.00;99.90;;;;;;5077070;28;20090;-74
2022/06/15 04:55:23;;;;;;;0.50;0.50;;;12.00;99.90;;;;;;5076926;28;20044;-77
2022/06/15 04:57:54;;;;;;;0.80;0.80;;;12.00;99.90;;;;;;5076591;28;20048;-74
2022/06/15 05:00:23;;;;;;;0.50;0.50;;;12.00;99.90;;;;;;5076792;28;20109;-76
2022/06/15 05:02:49;;;;;;;0.65;0.65;;;12.10;99.90;;;;;;5076444;28;20087;-73
2022/06/15 05:05:15;;;;;;;0.50;0.50;;;12.10;99.90;;;;;;5076291;28;20118;-74
2022/06/15 05:07:41;;;;;;;0.40;0.40;;;12.20;99.90;;;;;;5076704;28;20158;-75
2022/06/15 05:10:10;;;;;;;0.40;0.40;;;12.20;99.90;;;;;;5076424;28;20076;-74
2022/06/15 05:12:36;;;;;;;0.50;0.50;;;12.30;99.90;;;;;;5076306;28;20105;-77
2022/06/15 05:15:02;;;;;;;0.52;0.52;;;12.40;99.90;;;;;;5076384;28;20127;-75
2022/06/15 05:17:27;;;;;;;0.40;0.40;;;12.50;99.90;;;;;;5076170;28;20044;-76
2022/06/15 05:19:53;;;;;;;0.40;0.40;;;12.50;99.90;;;;;;5076242;28;20056;-73
2022/06/15 05:22:18;;;;;;;0.40;0.40;;;12.60;99.90;;;;;;5058332;28;20041;-76
2022/06/15 05:24:44;;;;;;;0.40;0.40;;;12.90;99.90;;;;;;5076113;28;20044;-76
2022/06/15 05:27:10;;;;;;;0.40;0.40;;;13.20;99.90;;;;;;5076035;28;20045;-77
2022/06/15 05:29:37;;;;;;;0.68;0.57;;;13.50;99.90;;;;;;5076104;28;20091;-77
2022/06/15 05:32:07;;;;;;;0.43;0.43;;;14.00;99.90;;;;;;5075871;28;20476;-73
2022/06/15 05:34:33;;;;;;;2.17;0.63;;;14.40;99.90;;;;;;5075901;28;20049;-76
2022/06/15 05:36:59;;;;;;;0.40;0.40;;;14.90;99.90;;;;;;5076246;28;20102;-72
2022/06/15 05:39:25;;;;;;;0.35;0.35;;;15.20;99.90;;;;;;5075897;28;20439;-72
2022/06/15 05:41:50;;;;;;;0.40;0.40;;;15.50;99.90;;;;;;5075852;28;20044;-76
2022/06/15 05:47:02;;;;;;;0.50;0.50;;;16.30;99.90;;;;;;5058268;28;20053;-76
2022/06/15 05:49:28;;;;;;;0.32;0.32;;;16.70;99.90;;;;;;5075506;28;20059;-74
2022/06/15 05:51:54;;;;;;;0.70;0.70;;;17.00;99.90;;;;;;5075651;28;20096;-78
2022/06/15 05:54:20;;;;;;;0.40;0.40;;;17.20;99.90;;;;;;5075499;28;20465;-76
2022/06/15 05:56:45;;;;;;;0.30;0.30;;;17.50;99.90;;;;;;5075560;28;20048;-78
2022/06/15 05:59:12;;;;;;;0.53;0.53;;;17.70;99.90;;;;;;5075411;28;20063;-74
2022/06/15 06:01:38;;;;;;;0.40;0.40;;;17.80;99.90;;;;;;5074403;28;20040;-78
2022/06/15 06:04:05;;;;;;;0.40;0.40;;;18.00;99.90;;;;;;5075213;28;20037;-78
2022/06/15 06:06:32;;;;;;;0.40;0.40;;;18.30;99.90;;;;;;5075705;28;20133;-75
2022/06/15 06:08:58;;;;;;;0.50;0.50;;;18.50;99.90;;;;;;5075176;28;20044;-76
2022/06/15 06:11:25;;;;;;;1.45;0.68;;;18.40;99.90;;;;;;5074977;28;20508;-75
2022/06/15 06:13:51;;;;;;;;;;;18.50;99.90;;;;;;5075486;28;20109;-73
2022/06/15 06:16:18;;;;;;;0.40;0.40;;;18.50;99.90;;;;;;5075067;28;20360;-79
2022/06/15 06:18:44;;;;;;;2.50;1.65;;;18.30;99.90;;;;;;5075005;28;20044;-74
2022/06/15 06:21:10;;;;;;;1.05;0.70;;;18.50;99.90;;;;;;5074861;28;20048;-78
2022/06/15 06:23:36;;;;;;;0.30;0.30;;;18.60;99.90;;;;;;5074723;28;20124;-73
2022/06/15 06:26:03;;;;;;;0.30;0.30;;;18.70;99.90;;;;;;5074978;28;20040;-76
2022/06/15 06:28:40;;;;;;;0.40;0.40;;;18.80;99.90;;;;;;5074732;28;20080;-78
2022/06/15 06:31:09;;;;;;;0.30;0.30;;;18.80;99.90;;;;;;5074660;28;20492;-74
2022/06/15 06:33:36;;;;;;;0.50;0.50;;;18.90;99.90;;;;;;5074995;28;20044;-75
2022/06/15 06:36:05;;;;;;;0.30;0.30;;;19.00;99.90;;;;;;5056934;28;20051;-78
2022/06/15 06:38:31;;;;;;;0.30;0.30;;;18.90;99.90;;;;;;5074485;28;20084;-78
2022/06/15 06:40:58;;;;;;;0.60;0.60;;;19.00;99.90;;;;;;5074655;28;20098;-75
2022/06/15 06:43:23;;;;;;;;;;;18.90;99.90;;;;;;5074948;28;20123;-77
2022/06/15 06:45:49;;;;;;;0.40;0.40;;;18.90;99.90;;;;;;5074906;28;19967;-75
2022/06/15 06:48:16;;;;;;;0.30;0.30;;;19.00;99.90;;;;;;5074489;28;20036;-76
2022/06/15 06:50:42;;;;;;;0.50;0.50;;;19.10;99.90;;;;;;5074600;28;20040;-79
2022/06/15 06:53:09;;;;;;;0.47;0.47;;;19.20;99.90;;;;;;5074338;28;20048;-74
2022/06/15 06:55:35;;;;;;;0.40;0.40;;;19.30;99.90;;;;;;5074379;28;20472;-76
2022/06/15 06:58:01;;;;;;;0.30;0.30;;;19.20;99.90;;;;;;5074290;28;20051;-75
2022/06/15 07:00:29;;;;;;;4.23;1.60;;;19.30;99.90;;;;;;5074406;28;20502;-77
2022/06/15 07:02:55;;;;;;;0.30;0.30;;;19.30;99.90;;;;;;5074365;28;20052;-77
2022/06/15 07:05:20;;;;;;;0.30;0.30;;;19.20;99.90;;;;;;5074417;28;20041;-76
2022/06/15 07:07:46;;;;;;;0.30;0.30;;;19.40;99.90;;;;;;5074316;28;20515;-72
2022/06/15 07:10:14;;;;;;;0.30;0.30;;;19.50;99.90;;;;;;5074208;28;20059;-72
2022/06/15 07:12:42;;;;;;;0.30;0.30;;;19.70;99.90;;;;;;5073898;28;20044;-75
2022/06/15 07:15:09;;;;;;;0.65;0.65;;;19.70;99.90;;;;;;5074139;28;20166;-72
2022/06/15 07:17:35;;;;;;;0.40;0.40;;;19.80;99.90;;;;;;5074000;28;20052;-74
2022/06/15 07:20:01;;;;;;;0.50;0.50;;;19.80;99.90;;;;;;5074335;28;20472;-73
2022/06/15 07:22:26;;;;;;;0.40;0.40;;;20.00;99.90;;;;;;5074643;28;20090;-72
2022/06/15 07:24:52;;;;;;;0.57;0.50;;;20.00;99.90;;;;;;5074078;28;20473;-74
2022/06/15 07:27:18;;;;;;;0.40;0.40;;;19.90;99.90;;;;;;5073952;28;20056;-73
2022/06/15 07:29:46;;;;;;;0.20;0.20;;;19.90;99.90;;;;;;5074077;28;20052;-76
2022/06/15 07:32:13;;;;;;;0.30;0.30;;;19.90;99.90;;;;;;5074083;28;20499;-76
2022/06/15 07:34:39;;;;;;;;;;;20.00;99.90;;;;;;5074384;28;20041;-73
2022/06/15 07:37:04;;;;;;;1.00;0.57;;;20.10;99.90;;;;;;5073800;28;20276;-75
2022/06/15 07:39:30;;;;;;;0.83;0.77;;;20.30;99.90;;;;;;5074009;28;20048;-75
2022/06/15 07:41:57;;;;;;;0.93;0.40;;;20.40;99.90;;;;;;5073879;28;20466;-77
2022/06/15 07:44:25;;;;;;;0.30;0.30;;;20.50;99.90;;;;;;5073411;28;20492;-76
2022/06/15 07:49:54;;;;;;;0.30;0.30;;;20.70;99.90;;;;;;5073915;28;20045;-78
2022/06/15 07:49:55;;;;;;;0.30;0.30;;;20.70;99.90;;;;;;5055739;28;20488;-76
2022/06/15 07:52:29;;;;;;;2.75;0.95;;;20.60;99.90;;;;;;5073598;28;20049;-79
2022/06/15 07:54:55;;;;;;;0.30;0.30;;;20.70;99.90;;;;;;5073544;28;20084;-74
2022/06/15 07:57:22;;;;;;;0.30;0.30;;;20.80;99.90;;;;;;5073457;28;20455;-74
2022/06/15 07:59:48;;;;;;;0.30;0.30;;;20.80;99.90;;;;;;5073587;28;20044;-76
2022/06/15 08:02:14;;;;;;;0.50;0.50;;;20.80;99.90;;;;;;5073246;28;20106;-74
2022/06/15 08:04:39;;;;;;;0.35;0.35;;;20.90;98.90;;;;;;5073238;28;20049;-74
2022/06/15 08:07:08;;;;;;;0.50;0.50;;;20.90;99.90;;;;;;5073520;28;20546;-79
2022/06/15 08:09:33;;;;;;;0.20;0.20;;;20.90;99.20;;;;;;5073449;28;20044;-73
2022/06/15 08:12:11;;;;;;;0.77;0.57;;;20.80;97.00;;;;;;5073353;28;20135;-75
2022/06/15 08:14:39;;;;;;;0.30;0.30;;;20.90;96.60;;;;;;5073339;28;20079;-76
2022/06/15 08:17:06;;;;;;;0.30;0.30;;;21.00;98.20;;;;;;5073554;28;20444;-76
2022/06/15 08:19:39;;;;;;;0.30;0.30;;;21.20;96.40;;;;;;5055091;28;20044;-76
2022/06/15 08:22:07;;;;;;;0.30;0.30;;;21.00;96.40;;;;;;5073358;28;20044;-77
2022/06/15 08:24:32;;;;;;;0.35;0.35;;;21.10;97.40;;;;;;5074078;28;20032;-74
2022/06/15 08:26:59;;;;;;;0.30;0.30;;;21.30;98.10;;;;;;5077470;28;20477;-75
2022/06/15 08:29:24;;;;;;;0.20;0.20;;;21.40;98.90;;;;;;5077145;28;20119;-75
2022/06/15 08:31:53;;;;;;;0.30;0.30;;;21.30;95.40;;;;;;5077053;28;20468;-73
2022/06/15 08:34:18;;;;;;;1.98;1.40;;;21.40;95.20;;;;;;5077548;28;20134;-74
2022/06/15 08:36:44;;;;;;;0.30;0.30;;;21.50;96.30;;;;;;5077150;28;20048;-75
2022/06/15 08:39:09;;;;;;;0.30;0.30;;;21.70;94.60;;;;;;5059156;28;20109;-77
2022/06/15 08:41:56;;;;;;;0.30;0.30;;;21.50;93.70;;;;;;5076916;28;20040;-77
2022/06/15 08:44:26;;;;;;;0.50;0.50;;;21.50;94.40;;;;;;5076888;28;20473;-75
2022/06/15 08:47:28;;;;;;;1.25;0.52;;;21.60;95.00;;;;;;5076819;28;20400;-75
2022/06/15 08:50:08;;;;;;;0.20;0.20;;;21.60;93.50;;;;;;5076760;28;20037;-75
2022/06/15 08:52:48;;;;;;;0.30;0.30;;;21.80;93.60;;;;;;5076787;28;20066;-76
2022/06/15 08:55:37;;;;;;;0.52;0.45;;;21.70;91.10;;;;;;5077144;28;20046;-75
2022/06/15 08:58:23;;;;;;;0.20;0.20;;;21.70;92.60;;;;;;5076675;28;20040;-76
2022/06/15 09:00:54;;;;;;;13.15;1.40;;;21.80;92.20;;;;;;5076722;28;20047;-80
2022/06/15 09:03:34;;;;;;;0.30;0.30;;;21.80;93.10;;;;;;5076562;28;20051;-78
2022/06/15 09:06:32;;;;;;;0.75;0.75;;;22.00;92.30;;;;;;5077220;28;20053;-78
2022/06/15 09:09:13;;;;;;;0.20;0.20;;;22.20;92.90;;;;;;5076436;28;20033;-77
2022/06/15 09:15:43;;;;;;;0.63;0.30;;;22.30;93.00;;;;;;4975506;28;20047;-77
2022/06/15 09:18:24;;;;;;;0.30;0.30;;;22.40;93.00;;;;;;5056439;28;20052;-76
2022/06/15 09:21:00;;;;;;;0.20;0.20;;;22.40;91.00;;;;;;5076291;28;20044;-76
2022/06/15 09:23:34;;;;;;;0.30;0.30;;;22.40;92.60;;;;;;5076214;28;20471;-75
2022/06/15 09:26:17;;;;;;;0.32;0.32;;;22.40;91.20;;;;;;5076211;28;20044;-73
2022/06/15 09:28:51;;;;;;;0.65;0.47;;;22.50;92.70;;;;;;5076028;28;20048;-74
2022/06/15 09:31:24;;;;;;;0.30;0.30;;;22.60;91.60;;;;;;5076397;28;20066;-81
2022/06/15 09:33:55;;;;;;;0.30;0.30;;;22.60;91.20;;;;;;5075970;28;20481;-73
2022/06/15 09:36:26;;;;;;;0.30;0.30;;;22.50;91.50;;;;;;5075872;28;20036;-73
2022/06/15 09:38:52;;;;;;;0.20;0.20;;;22.70;92.90;;;;;;5075915;28;20114;-78
2022/06/15 09:41:49;;;;;;;0.20;0.20;;;22.60;90.60;;;;;;5076352;28;20472;-78
2022/06/15 09:44:35;;;;;;;0.30;0.30;;;22.80;90.80;;;;;;5067945;28;20060;-77
2022/06/15 09:47:04;;;;;;;0.30;0.30;;;22.70;89.50;;;;;;5075972;28;20049;-75
2022/06/15 09:49:46;;;;;;;0.30;0.30;;;22.80;88.80;;;;;;5075572;28;20306;-79
2022/06/15 09:52:36;;;;;;;1.25;0.40;;;22.70;90.40;;;;;;5075789;28;20055;-77
2022/06/15 09:55:26;;;;;;;0.30;0.30;;;22.80;90.20;;;;;;5075951;28;20044;-72
2022/06/15 09:57:53;;;;;;;0.40;0.40;;;22.80;89.80;;;;;;5075808;28;20041;-76
2022/06/15 10:00:19;;;;;;;0.20;0.20;;;22.80;90.70;;;;;;5075564;28;20044;-77
2022/06/15 10:02:55;;;;;;;0.57;0.50;;;22.90;90.70;;;;;;5075637;28;20127;-78
2022/06/15 10:05:30;;;;;;;0.20;0.20;;;23.20;90.80;;;;;;5076100;28;20057;-75
2022/06/15 10:07:58;;;;;;;0.82;0.82;;;23.20;89.80;;;;;;5075535;28;20048;-77
2022/06/15 10:10:28;;;;;;;0.30;0.30;;;23.10;91.00;;;;;;5075483;28;20420;-77
2022/06/15 10:15:52;;;;;;;0.30;0.30;;;23.20;90.00;;;;;;5075130;28;20558;-78
2022/06/15 10:18:30;;;;;;;0.30;0.30;;;23.20;90.10;;;;;;5038697;28;20083;-75
2022/06/15 10:21:14;;;;;;;0.20;0.20;;;23.40;89.60;;;;;;5075161;28;20098;-79
2022/06/15 10:24:01;;;;;;;0.50;0.50;;;23.60;88.70;;;;;;5074956;28;20563;-76
2022/06/15 10:26:32;;;;;;;0.40;0.40;;;23.60;86.10;;;;;;5075290;28;20047;-76
2022/06/15 10:29:15;;;;;;;0.20;0.20;;;23.60;90.20;;;;;;5075160;28;20301;-75
2022/06/15 10:31:43;;;;;;;0.30;0.30;;;23.60;88.90;;;;;;5074907;28;20488;-77
2022/06/15 10:34:25;;;;;;;0.20;0.20;;;23.50;87.30;;;;;;5075273;28;20048;-77
2022/06/15 10:36:55;;;;;;;0.30;0.30;;;23.50;89.10;;;;;;5074869;28;20534;-76
2022/06/15 10:39:24;;;;;;;0.35;0.35;;;23.50;86.30;;;;;;5074692;28;20033;-74
2022/06/15 10:41:51;;;;;;;0.20;0.20;;;23.60;89.00;;;;;;5075042;28;20377;-73
2022/06/15 10:44:28;;;;;;;;;;;23.80;89.20;;;;;;5075026;28;20105;-76
2022/06/15 10:46:59;;;;;;;0.30;0.30;;;23.70;86.20;;;;;;5074239;28;19920;-73
2022/06/15 10:49:27;;;;;;;0.30;0.30;;;23.70;87.30;;;;;;5056390;28;20041;-76
2022/06/15 10:51:53;;;;;;;0.20;0.20;;;23.70;85.20;;;;;;5074348;28;20040;-77
2022/06/15 10:54:31;;;;;;;0.20;0.20;;;23.60;87.10;;;;;;5074344;28;20048;-74
2022/06/15 11:03:10;;;;;;;0.20;0.20;;;23.60;85.00;;;;;;5074251;28;20048;-75
2022/06/15 11:05:36;;;;;;;0.40;0.40;;;23.70;87.10;;;;;;5074346;28;20052;-73
2022/06/15 11:08:14;;;;;;;0.30;0.30;;;23.80;86.80;;;;;;5074184;28;20123;-75
2022/06/15 11:10:45;;;;;;;1.45;0.32;;;23.90;87.50;;;;;;5074172;28;20041;-75
2022/06/15 11:13:19;;;;;;;0.40;0.40;;;23.90;82.70;;;;;;5074040;28;20041;-76
2022/06/15 11:18:37;;;;;;;;;;;24.00;83.40;;;;;;5074403;28;20044;-76
2022/06/15 11:21:05;;;;;;;0.30;0.30;;;23.90;87.10;;;;;;5074076;28;20037;-78
2022/06/15 11:23:57;;;;;;;0.70;0.43;;;24.20;86.10;;;;;;5073897;28;20040;-76
2022/06/15 11:29:48;;;;;;;0.30;0.30;;;24.40;86.00;;;;;;5074134;28;20098;-74
2022/06/15 11:32:23;;;;;;;0.20;0.20;;;24.40;87.10;;;;;;5073966;28;20036;-76
2022/06/15 11:35:23;;;;;;;0.40;0.40;;;24.50;83.90;;;;;;5073996;28;20071;-77
2022/06/15 11:38:24;;;;;;;0.30;0.30;;;24.30;84.20;;;;;;5020584;28;20205;-78
2022/06/15 11:41:03;;;;;;;0.30;0.30;;;24.30;85.90;;;;;;4956543;28;20082;-77
2022/06/15 11:43:38;;;;;;;0.30;0.30;;;24.50;88.20;;;;;;5061418;28;20057;-76
2022/06/15 11:46:32;;;;;;;0.43;0.35;;;24.40;85.90;;;;;;5074029;28;20037;-74
2022/06/15 11:49:16;;;;;;;0.50;0.50;;;24.60;88.10;;;;;;5073698;28;20040;-78
2022/06/15 11:52:08;;;;;;;0.20;0.20;;;24.50;88.00;;;;;;5073890;28;20088;-78
2022/06/15 11:54:52;;;;;;;0.30;0.30;;;24.60;86.70;;;;;;5073905;28;20431;-75
2022/06/15 11:57:40;;;;;;;0.38;0.38;;;24.70;86.70;;;;;;5056185;28;20118;-77
2022/06/15 12:00:17;;;;;;;1.00;0.95;;;24.70;86.10;;;;;;5075691;28;20041;-77
2022/06/15 12:02:44;;;;;;;;;;;24.80;86.80;;;;;;5077934;28;20480;-75
2022/06/15 12:05:27;;;;;;;0.20;0.20;;;24.90;88.10;;;;;;5077806;28;19920;-75
2022/06/15 12:08:21;;;;;;;1.08;0.60;;;25.00;86.90;;;;;;5077939;28;20044;-76
2022/06/15 12:12:37;;;;;;;0.43;0.43;;;25.00;86.60;;;;;;5077725;28;20400;-75
2022/06/15 12:14:18;;;;;;;0.30;0.30;;;25.10;84.90;;;;;;5077466;28;20178;-73
2022/06/15 12:17:17;;;;;;;0.55;0.52;;;25.00;81.90;;;;;;5076665;28;20048;-76
2022/06/15 12:19:54;;;;;;;0.20;0.20;;;25.00;82.90;;;;;;5077528;28;20041;-76
2022/06/15 12:22:37;;;;;;;0.82;0.75;;;25.00;84.30;;;;;;5077967;28;20037;-79
2022/06/15 12:25:35;;;;;;;0.85;0.40;;;25.00;85.00;;;;;;5077588;28;20392;-78
2022/06/15 12:28:06;;;;;;;0.25;0.25;;;25.10;86.20;;;;;;5055796;28;20488;-74
2022/06/15 12:30:55;;;;;;;0.30;0.30;;;25.30;84.80;;;;;;5077929;28;20041;-77
2022/06/15 12:33:43;;;;;;;0.57;0.57;;;25.20;85.60;;;;;;5077534;28;20044;-76
2022/06/15 12:36:28;;;;;;;0.20;0.20;;;25.20;86.00;;;;;;5059473;28;20040;-77
2022/06/15 12:39:21;;;;;;;0.25;0.25;;;25.20;84.40;;;;;;5077344;28;20128;-76
2022/06/15 12:44:38;;;;;;;0.52;0.52;;;25.10;86.50;;;;;;5059492;28;20181;-76
2022/06/15 12:47:10;;;;;;;0.30;0.30;;;25.30;84.70;;;;;;5076980;28;20055;-73
2022/06/15 12:49:45;;;;;;;0.30;0.30;;;25.20;82.70;;;;;;5059424;28;20044;-74
2022/06/15 12:52:20;;;;;;;0.40;0.40;;;25.40;84.20;;;;;;5076725;28;20036;-73
2022/06/15 12:54:52;;;;;;;3.38;1.15;;;25.30;85.60;;;;;;5076815;28;20127;-76
2022/06/15 12:57:33;;;;;;;0.20;0.20;;;25.10;82.80;;;;;;5076761;28;20056;-77
2022/06/15 13:00:05;;;;;;;0.20;0.20;;;25.10;86.00;;;;;;5077092;28;20429;-75
2022/06/15 13:03:02;;;;;;;0.40;0.40;;;25.20;86.20;;;;;;5076930;28;20414;-73
2022/06/15 13:05:32;;;;;;;0.30;0.30;;;25.30;82.70;;;;;;5076966;28;20065;-78
2022/06/15 13:08:20;;;;;;;0.20;0.20;;;25.30;82.50;;;;;;5076438;28;20059;-75
2022/06/15 13:10:55;;;;;;;1.35;0.52;;;25.30;83.30;;;;;;5076463;28;20052;-72
2022/06/15 13:13:29;;;;;;;5.32;0.50;;;25.30;85.10;;;;;;5076751;28;20078;-78
2022/06/15 13:15:59;;;;;;;0.32;0.32;;;25.30;85.00;;;;;;5076466;28;20080;-72
2022/06/15 13:18:48;;;;;;;0.30;0.30;;;25.30;84.00;;;;;;5076401;28;20044;-78
2022/06/15 13:21:16;;;;;;;0.20;0.20;;;25.20;85.00;;;;;;5076526;28;20067;-75
2022/06/15 13:23:59;;;;;;;0.30;0.30;;;25.30;85.10;;;;;;5076245;28;20162;-75
2022/06/15 13:26:45;;;;;;;0.40;0.40;;;25.30;82.70;;;;;;5076091;28;20538;-77
2022/06/15 13:29:11;;;;;;;0.30;0.30;;;25.20;82.80;;;;;;5076359;28;20084;-77
2022/06/15 13:32:05;;;;;;;0.30;0.30;;;25.10;83.60;;;;;;5076248;28;20091;-74
2022/06/15 13:34:34;;;;;;;0.35;0.35;;;25.10;83.80;;;;;;5076087;28;20570;-79
2022/06/15 13:37:14;;;;;;;0.20;0.20;;;25.10;83.40;;;;;;5076062;28;20048;-75
2022/06/15 13:39:43;;;;;;;0.20;0.20;;;25.10;84.20;;;;;;5076409;28;20094;-77
2022/06/15 13:42:35;;;;;;;0.28;0.28;;;25.20;85.70;;;;;;5076422;28;20056;-77